CST,Max TemperatureF,Mean TemperatureF,Min TemperatureF,Max Dew PointF,MeanDew PointF,Min DewpointF,Max Humidity, Mean Humidity, Min Humidity, Max Sea Level PressureIn, Mean Sea Level PressureIn, Min Sea Level PressureIn, Max VisibilityMiles, Mean VisibilityMiles, Min VisibilityMiles, Max Wind SpeedMPH, Mean Wind SpeedMPH, Max Gust SpeedMPH,PrecipitationIn, CloudCover, Events, WindDirDegrees
2012-12-1,71,60,49,63,57,50,100,86,69,30.30,30.26,30.22,10,10,10,12,4,,0.00,1,Rain,99
2012-12-2,71,61,51,66,60,51,100,93,78,30.33,30.27,30.23,10,6,0,9,5,,0.01,1,Fog-Rain,81
2012-12-3,72,62,51,68,63,52,100,92,78,30.29,30.24,30.20,10,9,1,13,6,,0.00,1,Rain,103
2012-12-4,71,62,53,68,60,54,100,99,88,30.28,30.24,30.20,10,8,2,8,4,,0.01,3,Rain,56
2012-12-5,71,64,55,66,62,55,100,93,81,30.08,30.07,30.06,10,10,10,7,3,,0.00,0,Rain,130
2012-12-6,72,62,51,65,59,52,100,90,69,30.06,30.02,29.98,10,10,7,10,3,,0.00,0,,79
2012-12-7,68,64,59,64,62,59,100,93,88,30.04,29.98,29.95,10,9,6,10,7,,0.00,5,,88
2012-12-8,73,52,32,69,63,30,100,97,83,30.02,29.98,29.95,10,8,1,9,5,,0.01,4,Rain,70
2012-12-9,74,64,54,70,61,55,100,98,80,30.09,30.02,29.96,10,4,0,9,2,,0.01,4,Fog-Rain,132
2012-12-10,76,68,59,72,68,59,100,95,87,29.95,29.86,29.78,10,10,10,20,11,24,0.00,3,,218
2012-12-11,57,50,42,56,45,41,100,88,81,30.14,30.04,29.89,10,10,6,17,12,,0.13,7,Rain,12
2012-12-12,52,44,36,46,43,36,100,96,74,30.24,30.14,30.07,10,10,9,14,10,,0.05,5,Rain,10
2012-12-13,60,48,36,50,43,36,100,90,68,30.32,30.27,30.23,10,10,10,14,8,,0.00,1,,25
2012-12-14,50,46,42,48,46,43,100,97,87,30.34,30.26,30.16,10,10,6,10,6,,0.00,7,Rain,53
2012-12-15,66,56,47,66,59,48,100,97,86,30.16,30.09,30.04,10,10,10,12,7,,0.00,6,Rain,107
2012-12-16,73,66,60,70,67,61,100,99,88,30.01,29.94,29.87,10,10,3,14,7,22,0.11,6,Rain,179
2012-12-17,71,66,60,72,65,60,100,100,94,29.88,29.83,29.77,10,6,0,18,7,25,0.23,6,Rain-Thunderstorm,169
2012-12-18,65,54,42,60,52,42,100,89,59,30.05,29.99,29.88,10,10,5,10,5,,0.00,0,,309
2012-12-19,71,55,39,67,58,40,100,85,60,30.11,30.03,29.98,10,10,10,13,6,,0.00,1,,135
2012-12-20,73,60,47,73,63,33,100,87,51,30.17,29.90,29.80,10,9,2,24,14,34,0.11,6,Rain,201
2012-12-21,55,46,38,30,25,22,61,46,29,30.34,30.26,30.18,10,10,10,20,10,30,0.00,0,Rain,317
2012-12-22,60,45,30,37,29,24,95,53,29,30.41,30.31,30.26,10,10,10,15,7,22,0.00,0,Rain,359
2012-12-23,64,48,33,58,42,32,94,78,58,30.27,30.18,30.07,10,10,10,13,6,,0.00,4,,48
2012-12-24,68,65,62,68,65,59,100,98,78,30.04,29.94,29.89,10,7,0,24,12,34,0.22,7,Fog-Rain-Thunderstorm,230
2012-12-25,71,64,57,72,64,57,100,100,88,29.91,29.82,29.62,10,5,0,29,6,43,0.65,6,Fog-Rain-Thunderstorm,143
2012-12-26,60,48,36,58,42,34,95,79,64,30.13,29.89,29.68,10,10,10,21,13,30,0.00,3,Rain,309
2012-12-27,48,40,32,42,36,32,100,86,71,30.19,30.13,30.08,10,10,10,10,7,,0.00,2,Rain,345
2012-12-28,68,52,35,68,58,35,100,97,88,30.10,29.89,29.75,10,8,2,21,8,26,0.56,7,Rain,115
2012-12-29,64,50,36,65,48,30,100,88,63,30.35,30.02,29.77,10,10,10,22,12,29,0.00,5,Rain,321
2012-12-30,53,40,28,36,31,26,94,71,44,30.49,30.40,30.35,10,10,7,14,6,,0.00,0,Rain,357
2012-12-31,61,48,35,60,51,32,100,89,78,30.36,30.25,30.12,10,10,4,9,6,,0.00,6,Rain,65